Time,TemperatureF,DewpointF,PressureIn,WindDirection,WindDirectionDegrees,WindSpeedMPH,WindSpeedGustMPH,Humidity,HourlyPrecipIn,Conditions,Clouds,dailyrainin,SoftwareType,DateUTC
2013-10-09 00:00:00,32.0,-58.3,29.31,WSW,248,2.0,5.0,1,0.00,,,0.00,Weather View 32 v70,2013-10-09 08:00:00,
2013-10-09 00:10:00,32.0,-58.3,29.32,South,180,2.0,5.0,1,0.00,,,0.00,Weather View 32 v70,2013-10-09 08:10:00,
2013-10-09 00:15:00,32.0,-58.3,29.32,South,180,2.0,4.0,1,0.00,,,0.00,Weather View 32 v70,2013-10-09 08:15:00,
2013-10-09 00:20:00,32.0,-58.3,29.32,SSE,158,2.0,4.0,1,0.00,,,0.00,Weather View 32 v70,2013-10-09 08:20:00,
2013-10-09 00:25:00,32.0,-58.3,29.32,South,180,3.0,3.0,1,0.00,,,0.00,Weather View 32 v70,2013-10-09 08:25:00,
2013-10-09 00:30:00,32.0,-58.3,29.32,South,180,3.0,3.0,1,0.00,,,0.00,Weather View 32 v70,2013-10-09 08:30:00,
2013-10-09 00:35:00,32.0,-58.3,29.32,South,180,4.0,4.0,1,0.00,,,0.00,Weather View 32 v70,2013-10-09 08:35:00,
2013-10-09 00:40:00,32.0,-58.3,29.32,NW,315,4.0,4.0,1,0.00,,,0.00,Weather View 32 v70,2013-10-09 08:40:00,
2013-10-09 00:45:00,32.0,-58.3,29.32,WSW,248,3.0,4.0,1,0.00,,,0.00,Weather View 32 v70,2013-10-09 08:45:00,
2013-10-09 00:50:00,32.0,-58.3,29.32,SSE,158,2.0,4.0,1,0.00,,,0.00,Weather View 32 v70,2013-10-09 08:50:00,
2013-10-09 01:00:00,32.0,-58.3,29.32,South,180,2.0,4.0,1,0.00,,,0.00,Weather View 32 v70,2013-10-09 09:00:00,
2013-10-09 01:05:00,32.0,-58.3,29.32,SSW,202,2.0,4.0,1,0.00,,,0.00,Weather View 32 v70,2013-10-09 09:05:00,
2013-10-09 01:10:00,32.0,-58.3,29.32,South,180,3.0,4.0,1,0.00,,,0.00,Weather View 32 v70,2013-10-09 09:10:00,
2013-10-09 01:15:00,32.0,-58.3,29.32,SW,225,3.0,4.0,1,0.00,,,0.00,Weather View 32 v70,2013-10-09 09:15:00,
2013-10-09 01:20:00,32.0,-58.3,29.32,SSW,202,3.0,4.0,1,0.00,,,0.00,Weather View 32 v70,2013-10-09 09:20:00,
2013-10-09 01:25:00,32.0,-58.3,29.32,South,180,3.0,4.0,1,0.00,,,0.00,Weather View 32 v70,2013-10-09 09:25:00,
2013-10-09 01:30:00,32.0,-58.3,29.33,South,180,3.0,4.0,1,0.00,,,0.00,Weather View 32 v70,2013-10-09 09:30:00,
2013-10-09 01:35:00,32.0,-58.3,29.33,SSW,202,4.0,4.0,1,0.00,,,0.00,Weather View 32 v70,2013-10-09 09:35:00,
2013-10-09 01:40:00,32.0,-58.3,29.33,WSW,248,3.0,4.0,1,0.00,,,0.00,Weather View 32 v70,2013-10-09 09:40:00,
2013-10-09 01:45:00,32.0,-58.3,29.33,ESE,112,3.0,4.0,1,0.00,,,0.00,Weather View 32 v70,2013-10-09 09:45:00,
2013-10-09 01:50:00,32.0,-58.3,29.34,SSE,158,2.0,4.0,1,0.00,,,0.00,Weather View 32 v70,2013-10-09 09:50:00,
2013-10-09 01:55:00,32.0,-58.3,29.34,SW,225,3.0,4.0,1,0.00,,,0.00,Weather View 32 v70,2013-10-09 09:55:00,
2013-10-09 02:00:00,32.0,-58.3,29.34,SSE,158,3.0,4.0,1,0.00,,,0.00,Weather View 32 v70,2013-10-09 10:00:00,
2013-10-09 02:05:00,32.0,-58.3,29.34,SSE,158,3.0,4.0,1,0.00,,,0.00,Weather View 32 v70,2013-10-09 10:05:00,
2013-10-09 02:10:00,32.0,-58.3,29.34,SW,225,3.0,4.0,1,0.00,,,0.00,Weather View 32 v70,2013-10-09 10:10:00,
2013-10-09 02:15:00,32.0,-58.3,29.34,SE,135,2.0,4.0,1,0.00,,,0.00,Weather View 32 v70,2013-10-09 10:15:00,
2013-10-09 02:27:00,32.0,-58.3,29.36,SSE,158,2.0,4.0,1,0.00,,,0.00,Weather View 32 v70,2013-10-09 10:27:00,
2013-10-09 02:32:00,32.0,-58.3,29.36,WSW,248,2.0,4.0,1,0.00,,,0.00,Weather View 32 v70,2013-10-09 10:32:00,
2013-10-09 02:37:00,32.0,-58.3,29.36,SE,135,2.0,4.0,1,0.00,,,0.00,Weather View 32 v70,2013-10-09 10:37:00,
2013-10-09 02:41:00,32.0,-58.3,29.36,South,180,2.0,3.0,1,0.00,,,0.00,Weather View 32 v70,2013-10-09 10:41:00,
2013-10-09 02:46:00,32.0,-58.3,29.38,South,180,3.0,3.0,1,0.00,,,0.00,Weather View 32 v70,2013-10-09 10:46:00,
2013-10-09 02:51:00,32.0,-58.3,29.38,SE,135,4.0,4.0,1,0.00,,,0.00,Weather View 32 v70,2013-10-09 10:51:00,
2013-10-09 02:56:00,32.0,-58.3,29.38,SSE,158,4.0,4.0,1,0.00,,,0.00,Weather View 32 v70,2013-10-09 10:56:00,
2013-10-09 03:01:00,32.0,-58.3,29.38,SSE,158,4.0,4.0,1,0.00,,,0.00,Weather View 32 v70,2013-10-09 11:01:00,
2013-10-09 03:06:00,32.0,-58.3,29.39,SSE,158,3.0,4.0,1,0.00,,,0.00,Weather View 32 v70,2013-10-09 11:06:00,
2013-10-09 03:11:00,32.0,-58.3,29.39,SSE,158,3.0,4.0,1,0.00,,,0.00,Weather View 32 v70,2013-10-09 11:11:00,
2013-10-09 03:17:00,32.0,-58.3,29.39,South,180,3.0,4.0,1,0.00,,,0.00,Weather View 32 v70,2013-10-09 11:17:00,
2013-10-09 03:22:00,32.0,-58.3,29.39,SSE,158,3.0,4.0,1,0.00,,,0.00,Weather View 32 v70,2013-10-09 11:22:00,
2013-10-09 03:27:00,32.0,-58.3,29.40,SSW,202,3.0,4.0,1,0.00,,,0.00,Weather View 32 v70,2013-10-09 11:27:00,
2013-10-09 03:32:00,32.0,-58.3,29.40,SSE,158,3.0,4.0,1,0.00,,,0.00,Weather View 32 v70,2013-10-09 11:32:00,
2013-10-09 03:37:00,32.0,-58.3,29.40,SSE,158,3.0,4.0,1,0.00,,,0.00,Weather View 32 v70,2013-10-09 11:37:00,
2013-10-09 03:42:00,32.0,-58.3,29.40,West,270,3.0,4.0,1,0.00,,,0.00,Weather View 32 v70,2013-10-09 11:42:00,
2013-10-09 03:47:00,32.0,-58.3,29.41,South,180,3.0,4.0,1,0.00,,,0.00,Weather View 32 v70,2013-10-09 11:47:00,
2013-10-09 03:52:00,38.1,36.3,29.41,SSE,158,3.0,4.0,93,0.00,,,0.00,Weather View 32 v70,2013-10-09 11:52:00,
2013-10-09 03:57:00,38.3,36.5,29.41,South,180,3.0,4.0,93,0.00,,,0.00,Weather View 32 v70,2013-10-09 11:57:00,
2013-10-09 04:02:00,37.8,35.9,29.41,South,180,3.0,4.0,93,0.00,,,0.00,Weather View 32 v70,2013-10-09 12:02:00,
2013-10-09 04:03:00,37.9,36.1,29.41,SSE,158,3.0,4.0,93,0.00,,,0.00,Weather View 32 v70,2013-10-09 12:03:00,
2013-10-09 04:08:00,37.9,36.1,29.43,South,180,3.0,4.0,93,0.00,,,0.00,Weather View 32 v70,2013-10-09 12:08:00,
2013-10-09 04:13:00,38.1,36.3,29.43,South,180,3.0,4.0,93,0.00,,,0.00,Weather View 32 v70,2013-10-09 12:13:00,
2013-10-09 04:18:00,38.3,36.7,29.43,South,180,3.0,3.0,94,0.00,,,0.00,Weather View 32 v70,2013-10-09 12:18:00,
2013-10-09 04:23:00,38.5,36.9,29.43,SSE,158,3.0,3.0,94,0.00,,,0.00,Weather View 32 v70,2013-10-09 12:23:00,
2013-10-09 04:28:00,38.7,36.8,29.43,SSE,158,3.0,3.0,93,0.00,,,0.00,Weather View 32 v70,2013-10-09 12:28:00,
2013-10-09 04:33:00,38.7,36.5,29.43,WSW,248,3.0,3.0,92,0.00,,,0.00,Weather View 32 v70,2013-10-09 12:33:00,
2013-10-09 04:38:00,39.0,36.9,29.43,ENE,68,3.0,3.0,92,0.00,,,0.00,Weather View 32 v70,2013-10-09 12:38:00,
2013-10-09 04:43:00,39.0,36.9,29.43,WSW,248,3.0,3.0,92,0.00,,,0.00,Weather View 32 v70,2013-10-09 12:43:00,
2013-10-09 04:48:00,39.0,36.9,29.45,SW,225,4.0,4.0,92,0.00,,,0.00,Weather View 32 v70,2013-10-09 12:48:00,
2013-10-09 04:53:00,39.0,36.6,29.45,SW,225,4.0,4.0,91,0.00,,,0.00,Weather View 32 v70,2013-10-09 12:53:00,
2013-10-09 04:58:00,39.0,36.6,29.45,SSW,202,4.0,4.0,91,0.00,,,0.00,Weather View 32 v70,2013-10-09 12:58:00,
2013-10-09 05:03:00,38.8,36.4,29.45,SSE,158,4.0,4.0,91,0.00,,,0.00,Weather View 32 v70,2013-10-09 13:03:00,
2013-10-09 05:08:00,38.8,36.4,29.47,SSE,158,4.0,4.0,91,0.00,,,0.00,Weather View 32 v70,2013-10-09 13:08:00,
2013-10-09 05:13:00,38.7,36.3,29.47,SW,225,3.0,4.0,91,0.00,,,0.00,Weather View 32 v70,2013-10-09 13:13:00,
2013-10-09 05:18:00,38.8,36.4,29.47,SSW,202,3.0,4.0,91,0.00,,,0.00,Weather View 32 v70,2013-10-09 13:18:00,
2013-10-09 05:23:00,38.7,36.3,29.47,SW,225,3.0,4.0,91,0.00,,,0.00,Weather View 32 v70,2013-10-09 13:23:00,
2013-10-09 05:28:00,38.5,36.1,29.48,NW,315,3.0,4.0,91,0.00,,,0.00,Weather View 32 v70,2013-10-09 13:28:00,
2013-10-09 05:33:00,38.7,36.3,29.48,South,180,3.0,4.0,91,0.00,,,0.00,Weather View 32 v70,2013-10-09 13:33:00,
2013-10-09 05:38:00,38.7,36.3,29.48,South,180,3.0,4.0,91,0.00,,,0.00,Weather View 32 v70,2013-10-09 13:38:00,
2013-10-09 05:43:00,38.7,36.3,29.48,SSW,202,3.0,4.0,91,0.00,,,0.00,Weather View 32 v70,2013-10-09 13:43:00,
2013-10-09 05:48:00,38.5,36.1,29.50,South,180,3.0,4.0,91,0.00,,,0.00,Weather View 32 v70,2013-10-09 13:48:00,
2013-10-09 05:53:00,38.7,36.3,29.50,ESE,112,3.0,4.0,91,0.00,,,0.00,Weather View 32 v70,2013-10-09 13:53:00,
2013-10-09 05:58:00,38.7,36.3,29.50,SSE,158,3.0,4.0,91,0.00,,,0.00,Weather View 32 v70,2013-10-09 13:58:00,
2013-10-09 06:03:00,39.0,36.6,29.50,SSE,158,3.0,4.0,91,0.00,,,0.00,Weather View 32 v70,2013-10-09 14:03:00,
2013-10-09 06:08:00,39.0,36.6,29.51,SSE,158,3.0,4.0,91,0.00,,,0.00,Weather View 32 v70,2013-10-09 14:08:00,
2013-10-09 06:13:00,39.0,36.6,29.51,SSE,158,3.0,3.0,91,0.00,,,0.00,Weather View 32 v70,2013-10-09 14:13:00,
2013-10-09 06:18:00,38.3,35.9,29.51,South,180,3.0,3.0,91,0.00,,,0.00,Weather View 32 v70,2013-10-09 14:18:00,
2013-10-09 06:23:00,38.3,36.2,29.51,SSW,202,3.0,3.0,92,0.00,,,0.00,Weather View 32 v70,2013-10-09 14:23:00,
2013-10-09 06:28:00,38.1,36.0,29.52,South,180,2.0,3.0,92,0.00,,,0.00,Weather View 32 v70,2013-10-09 14:28:00,
2013-10-09 06:33:00,38.1,36.0,29.52,South,180,2.0,3.0,92,0.00,,,0.00,Weather View 32 v70,2013-10-09 14:33:00,
2013-10-09 06:38:00,38.3,36.2,29.52,SW,225,2.0,3.0,92,0.00,,,0.00,Weather View 32 v70,2013-10-09 14:38:00,
2013-10-09 06:43:00,38.3,36.2,29.52,South,180,2.0,3.0,92,0.00,,,0.00,Weather View 32 v70,2013-10-09 14:43:00,
2013-10-09 06:48:00,37.9,35.8,29.54,SE,135,2.0,3.0,92,0.00,,,0.00,Weather View 32 v70,2013-10-09 14:48:00,
2013-10-09 06:53:00,38.1,36.0,29.54,SW,225,2.0,3.0,92,0.00,,,0.00,Weather View 32 v70,2013-10-09 14:53:00,
2013-10-09 06:58:00,37.8,35.4,29.54,SSE,158,2.0,3.0,91,0.00,,,0.00,Weather View 32 v70,2013-10-09 14:58:00,
2013-10-09 07:03:00,37.8,35.4,29.54,SE,135,2.0,3.0,91,0.00,,,0.00,Weather View 32 v70,2013-10-09 15:03:00,
2013-10-09 07:08:00,37.8,35.4,29.56,SSE,158,2.0,3.0,91,0.00,,,0.00,Weather View 32 v70,2013-10-09 15:08:00,
2013-10-09 07:13:00,37.2,35.1,29.56,SSE,158,3.0,3.0,92,0.00,,,0.00,Weather View 32 v70,2013-10-09 15:13:00,
2013-10-09 07:18:00,37.0,34.9,29.56,SE,135,2.0,3.0,92,0.00,,,0.00,Weather View 32 v70,2013-10-09 15:18:00,
2013-10-09 07:23:00,36.9,34.8,29.56,SSW,202,2.0,3.0,92,0.00,,,0.00,Weather View 32 v70,2013-10-09 15:23:00,
2013-10-09 07:28:00,36.7,34.6,29.57,South,180,3.0,3.0,92,0.00,,,0.00,Weather View 32 v70,2013-10-09 15:28:00,
2013-10-09 07:33:00,36.9,34.8,29.57,SSE,158,3.0,3.0,92,0.00,,,0.00,Weather View 32 v70,2013-10-09 15:33:00,
2013-10-09 07:38:00,36.5,34.4,29.57,SSE,158,2.0,3.0,92,0.00,,,0.00,Weather View 32 v70,2013-10-09 15:38:00,
2013-10-09 07:43:00,36.1,34.0,29.57,SSE,158,2.0,3.0,92,0.00,,,0.00,Weather View 32 v70,2013-10-09 15:43:00,
2013-10-09 07:48:00,36.1,34.3,29.59,SE,135,2.0,3.0,93,0.00,,,0.00,Weather View 32 v70,2013-10-09 15:48:00,
2013-10-09 07:53:00,36.0,34.1,29.59,SSE,158,3.0,3.0,93,0.00,,,0.00,Weather View 32 v70,2013-10-09 15:53:00,
2013-10-09 07:58:00,36.0,34.1,29.59,South,180,3.0,3.0,93,0.00,,,0.00,Weather View 32 v70,2013-10-09 15:58:00,
2013-10-09 08:03:00,36.5,34.7,29.59,SE,135,3.0,3.0,93,0.00,,,0.00,Weather View 32 v70,2013-10-09 16:03:00,
2013-10-09 08:08:00,36.5,34.7,29.60,SE,135,3.0,3.0,93,0.00,,,0.00,Weather View 32 v70,2013-10-09 16:08:00,
2013-10-09 08:13:00,36.9,35.0,29.60,SE,135,3.0,3.0,93,0.00,,,0.00,Weather View 32 v70,2013-10-09 16:13:00,
2013-10-09 08:18:00,36.9,35.0,29.60,SE,135,2.0,3.0,93,0.00,,,0.00,Weather View 32 v70,2013-10-09 16:18:00,
2013-10-09 08:23:00,37.4,35.3,29.60,SSE,158,3.0,3.0,92,0.00,,,0.00,Weather View 32 v70,2013-10-09 16:23:00,
2013-10-09 08:28:00,38.1,36.0,29.62,South,180,3.0,3.0,92,0.00,,,0.00,Weather View 32 v70,2013-10-09 16:28:00,
2013-10-09 08:33:00,38.3,35.9,29.62,SW,225,3.0,3.0,91,0.00,,,0.00,Weather View 32 v70,2013-10-09 16:33:00,
2013-10-09 08:38:00,38.5,36.1,29.62,WSW,248,3.0,3.0,91,0.00,,,0.00,Weather View 32 v70,2013-10-09 16:38:00,
2013-10-09 08:43:00,38.5,36.1,29.62,ESE,112,2.0,3.0,91,0.00,,,0.00,Weather View 32 v70,2013-10-09 16:43:00,
2013-10-09 08:48:00,38.5,36.1,29.67,South,180,2.0,3.0,91,0.00,,,0.00,Weather View 32 v70,2013-10-09 16:48:00,
2013-10-09 08:53:00,38.7,36.3,29.67,SSE,158,3.0,3.0,91,0.00,,,0.00,Weather View 32 v70,2013-10-09 16:53:00,
2013-10-09 08:58:00,38.8,36.2,29.67,SSE,158,3.0,3.0,90,0.00,,,0.00,Weather View 32 v70,2013-10-09 16:58:00,
2013-10-09 09:03:00,38.7,36.0,29.67,SE,135,3.0,3.0,90,0.00,,,0.00,Weather View 32 v70,2013-10-09 17:03:00,
2013-10-09 09:08:00,38.5,35.8,29.68,SSE,158,3.0,3.0,90,0.00,,,0.00,Weather View 32 v70,2013-10-09 17:08:00,
2013-10-09 09:13:00,38.7,36.0,29.68,SE,135,3.0,3.0,90,0.00,,,0.00,Weather View 32 v70,2013-10-09 17:13:00,
2013-10-09 09:18:00,39.2,36.2,29.68,SE,135,3.0,3.0,89,0.00,,,0.00,Weather View 32 v70,2013-10-09 17:18:00,
2013-10-09 09:23:00,39.4,36.1,29.68,SSW,202,3.0,3.0,88,0.00,,,0.00,Weather View 32 v70,2013-10-09 17:23:00,
2013-10-09 09:28:00,39.7,36.5,29.69,South,180,3.0,3.0,88,0.00,,,0.00,Weather View 32 v70,2013-10-09 17:28:00,
2013-10-09 09:33:00,39.7,36.5,29.69,SSE,158,3.0,3.0,88,0.00,,,0.00,Weather View 32 v70,2013-10-09 17:33:00,
2013-10-09 09:38:00,39.6,36.3,29.69,SW,225,3.0,3.0,88,0.00,,,0.00,Weather View 32 v70,2013-10-09 17:38:00,
2013-10-09 09:43:00,39.7,36.2,29.69,WSW,248,3.0,3.0,87,0.00,,,0.00,Weather View 32 v70,2013-10-09 17:43:00,
2013-10-09 09:48:00,39.9,36.1,29.70,SW,225,4.0,4.0,86,0.00,,,0.00,Weather View 32 v70,2013-10-09 17:48:00,
2013-10-09 09:53:00,40.5,36.6,29.70,SSE,158,3.0,4.0,86,0.00,,,0.00,Weather View 32 v70,2013-10-09 17:53:00,
2013-10-09 09:58:00,40.5,36.3,29.70,SSW,202,3.0,4.0,85,0.00,,,0.00,Weather View 32 v70,2013-10-09 17:58:00,
2013-10-09 10:03:00,41.2,36.7,29.70,South,180,4.0,4.0,84,0.00,,,0.00,Weather View 32 v70,2013-10-09 18:03:00,
2013-10-09 10:08:00,41.2,36.7,29.71,West,270,4.0,4.0,84,0.00,,,0.00,Weather View 32 v70,2013-10-09 18:08:00,
2013-10-09 10:13:00,41.4,36.9,29.71,SW,225,4.0,4.0,84,0.00,,,0.00,Weather View 32 v70,2013-10-09 18:13:00,
2013-10-09 10:18:00,41.4,36.9,29.71,SW,225,4.0,4.0,84,0.00,,,0.00,Weather View 32 v70,2013-10-09 18:18:00,
2013-10-09 10:23:00,41.9,37.1,29.71,SSE,158,4.0,4.0,83,0.00,,,0.00,Weather View 32 v70,2013-10-09 18:23:00,
2013-10-09 10:28:00,42.3,37.2,29.72,SSE,158,4.0,4.0,82,0.00,,,0.00,Weather View 32 v70,2013-10-09 18:28:00,
2013-10-09 10:33:00,43.0,36.9,29.72,SSW,202,4.0,4.0,79,0.00,,,0.00,Weather View 32 v70,2013-10-09 18:33:00,
2013-10-09 10:38:00,43.3,37.3,29.72,South,180,4.0,4.0,79,0.00,,,0.00,Weather View 32 v70,2013-10-09 18:38:00,
2013-10-09 10:43:00,44.1,37.3,29.72,South,180,4.0,4.0,77,0.00,,,0.00,Weather View 32 v70,2013-10-09 18:43:00,
2013-10-09 10:48:00,44.1,37.0,29.73,SSE,158,4.0,4.0,76,0.00,,,0.00,Weather View 32 v70,2013-10-09 18:48:00,
2013-10-09 10:53:00,46.9,38.4,29.73,South,180,4.0,4.0,72,0.00,,,0.00,Weather View 32 v70,2013-10-09 18:53:00,
2013-10-09 10:58:00,47.8,38.5,29.73,SSE,158,4.0,4.0,70,0.00,,,0.00,Weather View 32 v70,2013-10-09 18:58:00,
2013-10-09 11:03:00,53.1,41.2,29.73,SSW,202,4.0,4.0,64,0.00,,,0.00,Weather View 32 v70,2013-10-09 19:03:00,
2013-10-09 11:08:00,54.5,41.3,29.75,South,180,4.0,4.0,61,0.00,,,0.00,Weather View 32 v70,2013-10-09 19:08:00,
2013-10-09 11:13:00,50.0,38.7,29.75,South,180,4.0,4.0,65,0.00,,,0.00,Weather View 32 v70,2013-10-09 19:13:00,
2013-10-09 11:18:00,48.7,37.1,29.75,South,180,4.0,4.0,64,0.00,,,0.00,Weather View 32 v70,2013-10-09 19:18:00,
2013-10-09 11:23:00,49.8,38.9,29.75,South,180,4.0,4.0,66,0.00,,,0.00,Weather View 32 v70,2013-10-09 19:23:00,
2013-10-09 11:28:00,49.8,38.5,29.74,South,180,3.0,4.0,65,0.00,,,0.00,Weather View 32 v70,2013-10-09 19:28:00,
2013-10-09 11:33:00,52.7,38.7,29.74,NNW,338,4.0,4.0,59,0.00,,,0.00,Weather View 32 v70,2013-10-09 19:33:00,
2013-10-09 11:38:00,57.4,41.3,29.74,South,180,4.0,4.0,55,0.00,,,0.00,Weather View 32 v70,2013-10-09 19:38:00,
2013-10-09 11:43:00,59.5,38.7,29.74,SW,225,4.0,4.0,46,0.00,,,0.00,Weather View 32 v70,2013-10-09 19:43:00,
2013-10-09 11:48:00,60.3,39.3,29.75,SW,225,5.0,5.0,46,0.00,,,0.00,Weather View 32 v70,2013-10-09 19:48:00,
2013-10-09 11:53:00,62.4,40.7,29.75,South,180,4.0,5.0,45,0.00,,,0.00,Weather View 32 v70,2013-10-09 19:53:00,
2013-10-09 11:58:00,63.5,39.3,29.75,SW,225,3.0,5.0,41,0.00,,,0.00,Weather View 32 v70,2013-10-09 19:58:00,
2013-10-09 12:03:00,63.7,38.8,29.75,WSW,248,4.0,5.0,40,0.00,,,0.00,Weather View 32 v70,2013-10-09 20:03:00,
2013-10-09 12:08:00,63.7,38.8,29.76,WSW,248,4.0,5.0,40,0.00,,,0.00,Weather View 32 v70,2013-10-09 20:08:00,
2013-10-09 12:13:00,63.7,38.8,29.76,WSW,248,4.0,5.0,40,0.00,,,0.00,Weather View 32 v70,2013-10-09 20:13:00,
2013-10-09 12:18:00,54.9,35.0,29.76,NNE,22,4.0,5.0,47,0.00,,,0.00,Weather View 32 v70,2013-10-09 20:18:00,
2013-10-09 12:23:00,53.8,34.5,29.76,ENE,68,5.0,5.0,48,0.00,,,0.00,Weather View 32 v70,2013-10-09 20:23:00,
2013-10-09 12:28:00,55.6,35.1,29.78,WNW,292,4.0,5.0,46,0.00,,,0.00,Weather View 32 v70,2013-10-09 20:28:00,
2013-10-09 12:33:00,63.3,38.5,29.78,WNW,292,3.0,5.0,40,0.00,,,0.00,Weather View 32 v70,2013-10-09 20:33:00,
2013-10-09 12:38:00,65.3,37.6,29.78,West,270,3.0,5.0,36,0.00,,,0.00,Weather View 32 v70,2013-10-09 20:38:00,
2013-10-09 12:43:00,65.7,35.7,29.78,WNW,292,4.0,5.0,33,0.00,,,0.00,Weather View 32 v70,2013-10-09 20:43:00,
2013-10-09 12:48:00,66.4,36.3,29.80,SW,225,4.0,5.0,33,0.00,,,0.00,Weather View 32 v70,2013-10-09 20:48:00,
2013-10-09 12:53:00,65.8,37.4,29.80,SSE,158,5.0,5.0,35,0.00,,,0.00,Weather View 32 v70,2013-10-09 20:53:00,
2013-10-09 12:58:00,64.9,35.8,29.80,SW,225,5.0,5.0,34,0.00,,,0.00,Weather View 32 v70,2013-10-09 20:58:00,
2013-10-09 13:03:00,65.8,36.6,29.80,SSW,202,6.0,6.0,34,0.00,,,0.00,Weather View 32 v70,2013-10-09 21:03:00,
2013-10-09 13:08:00,66.7,35.9,29.82,SSW,202,6.0,6.0,32,0.00,,,0.00,Weather View 32 v70,2013-10-09 21:08:00,
2013-10-09 13:13:00,66.6,34.9,29.82,SW,225,5.0,6.0,31,0.00,,,0.00,Weather View 32 v70,2013-10-09 21:13:00,
2013-10-09 13:18:00,66.4,35.6,29.82,WSW,248,5.0,6.0,32,0.00,,,0.00,Weather View 32 v70,2013-10-09 21:18:00,
2013-10-09 13:23:00,66.7,35.9,29.82,WNW,292,5.0,6.0,32,0.00,,,0.00,Weather View 32 v70,2013-10-09 21:23:00,
2013-10-09 13:28:00,65.3,33.8,29.82,South,180,6.0,6.0,31,0.00,,,0.00,Weather View 32 v70,2013-10-09 21:28:00,
2013-10-09 13:33:00,65.7,34.1,29.82,SSE,158,7.0,7.0,31,0.00,,,0.00,Weather View 32 v70,2013-10-09 21:33:00,
2013-10-09 13:38:00,65.5,34.0,29.82,SW,225,6.0,7.0,31,0.00,,,0.00,Weather View 32 v70,2013-10-09 21:38:00,
2013-10-09 13:43:00,66.0,33.6,29.82,SW,225,5.0,7.0,30,0.00,,,0.00,Weather View 32 v70,2013-10-09 21:43:00,
2013-10-09 13:48:00,64.9,33.5,29.84,West,270,6.0,7.0,31,0.00,,,0.00,Weather View 32 v70,2013-10-09 21:48:00,
2013-10-09 13:53:00,65.3,33.8,29.84,West,270,6.0,7.0,31,0.00,,,0.00,Weather View 32 v70,2013-10-09 21:53:00,
2013-10-09 13:58:00,64.9,34.3,29.84,WSW,248,6.0,7.0,32,0.00,,,0.00,Weather View 32 v70,2013-10-09 21:58:00,
2013-10-09 14:03:00,64.8,33.3,29.84,SW,225,6.0,7.0,31,0.00,,,0.00,Weather View 32 v70,2013-10-09 22:03:00,
2013-10-09 14:08:00,64.6,33.2,29.85,SW,225,6.0,7.0,31,0.00,,,0.00,Weather View 32 v70,2013-10-09 22:08:00,
2013-10-09 14:13:00,63.0,31.8,29.85,WSW,248,7.0,7.0,31,0.00,,,0.00,Weather View 32 v70,2013-10-09 22:13:00,
2013-10-09 14:18:00,62.8,31.6,29.85,SW,225,6.0,7.0,31,0.00,,,0.00,Weather View 32 v70,2013-10-09 22:18:00,
2013-10-09 14:23:00,56.1,30.1,29.85,WSW,248,6.0,7.0,37,0.00,,,0.00,Weather View 32 v70,2013-10-09 22:23:00,
2013-10-09 14:28:00,54.9,30.3,29.86,SSE,158,6.0,7.0,39,0.00,,,0.00,Weather View 32 v70,2013-10-09 22:28:00,
2013-10-09 14:33:00,53.4,30.3,29.86,WSW,248,6.0,7.0,41,0.00,,,0.00,Weather View 32 v70,2013-10-09 22:33:00,
2013-10-09 14:38:00,52.7,29.6,29.86,South,180,6.0,7.0,41,0.00,,,0.00,Weather View 32 v70,2013-10-09 22:38:00,
2013-10-09 14:43:00,52.2,30.3,29.86,WSW,248,6.0,7.0,43,0.00,,,0.00,Weather View 32 v70,2013-10-09 22:43:00,
2013-10-09 14:48:00,52.0,30.7,29.87,South,180,5.0,7.0,44,0.00,,,0.00,Weather View 32 v70,2013-10-09 22:48:00,
2013-10-09 14:53:00,51.3,29.5,29.87,SE,135,5.0,7.0,43,0.00,,,0.00,Weather View 32 v70,2013-10-09 22:53:00,
2013-10-09 14:58:00,51.3,30.0,29.87,ESE,112,6.0,7.0,44,0.00,,,0.00,Weather View 32 v70,2013-10-09 22:58:00,
2013-10-09 15:03:00,50.9,30.3,29.87,SSW,202,5.0,7.0,45,0.00,,,0.00,Weather View 32 v70,2013-10-09 23:03:00,
2013-10-09 15:08:00,50.7,30.1,29.87,WSW,248,4.0,7.0,45,0.00,,,0.00,Weather View 32 v70,2013-10-09 23:08:00,
2013-10-09 15:13:00,50.5,29.4,29.87,SSE,158,5.0,7.0,44,0.00,,,0.00,Weather View 32 v70,2013-10-09 23:13:00,
2013-10-09 15:18:00,50.4,29.2,29.87,South,180,5.0,7.0,44,0.00,,,0.00,Weather View 32 v70,2013-10-09 23:18:00,
2013-10-09 15:23:00,50.4,29.8,29.87,South,180,5.0,7.0,45,0.00,,,0.00,Weather View 32 v70,2013-10-09 23:23:00,
2013-10-09 15:28:00,50.5,30.5,29.87,NW,315,4.0,7.0,46,0.00,,,0.00,Weather View 32 v70,2013-10-09 23:28:00,
2013-10-09 15:33:00,50.2,30.7,29.87,West,270,3.0,7.0,47,0.00,,,0.00,Weather View 32 v70,2013-10-09 23:33:00,
2013-10-09 15:38:00,50.0,30.0,29.87,WSW,248,3.0,6.0,46,0.00,,,0.00,Weather View 32 v70,2013-10-09 23:38:00,
2013-10-09 15:43:00,50.0,30.0,29.87,WSW,248,4.0,6.0,46,0.00,,,0.00,Weather View 32 v70,2013-10-09 23:43:00,
2013-10-09 15:48:00,50.0,30.5,29.88,South,180,4.0,6.0,47,0.00,,,0.00,Weather View 32 v70,2013-10-09 23:48:00,
2013-10-09 15:53:00,50.2,30.2,29.88,WSW,248,4.0,6.0,46,0.00,,,0.00,Weather View 32 v70,2013-10-09 23:53:00,
2013-10-09 15:58:00,50.0,30.0,29.88,West,270,4.0,6.0,46,0.00,,,0.00,Weather View 32 v70,2013-10-09 23:58:00,
2013-10-09 16:03:00,50.0,30.0,29.88,West,270,4.0,5.0,46,0.00,,,0.00,Weather View 32 v70,2013-10-10 00:03:00,
2013-10-09 16:08:00,50.0,31.6,29.89,NW,315,4.0,5.0,49,0.00,,,0.00,Weather View 32 v70,2013-10-10 00:08:00,
2013-10-09 16:13:00,50.2,31.2,29.89,SW,225,4.0,5.0,48,0.00,,,0.00,Weather View 32 v70,2013-10-10 00:13:00,
2013-10-09 16:18:00,50.0,31.0,29.89,South,180,4.0,5.0,48,0.00,,,0.00,Weather View 32 v70,2013-10-10 00:18:00,
2013-10-09 16:23:00,49.8,31.4,29.89,WSW,248,4.0,5.0,49,0.00,,,0.00,Weather View 32 v70,2013-10-10 00:23:00,
2013-10-09 16:28:00,49.6,31.2,29.88,SSW,202,4.0,4.0,49,0.00,,,0.00,Weather View 32 v70,2013-10-10 00:28:00,
2013-10-09 16:33:00,49.5,30.6,29.88,SSE,158,5.0,5.0,48,0.00,,,0.00,Weather View 32 v70,2013-10-10 00:33:00,
2013-10-09 16:38:00,49.3,29.9,29.88,WSW,248,5.0,5.0,47,0.00,,,0.00,Weather View 32 v70,2013-10-10 00:38:00,
2013-10-09 16:43:00,49.1,30.2,29.88,South,180,5.0,5.0,48,0.00,,,0.00,Weather View 32 v70,2013-10-10 00:43:00,
2013-10-09 16:48:00,48.9,30.1,29.89,North,0,4.0,5.0,48,0.00,,,0.00,Weather View 32 v70,2013-10-10 00:48:00,
2013-10-09 16:53:00,48.7,30.4,29.89,West,270,5.0,5.0,49,0.00,,,0.00,Weather View 32 v70,2013-10-10 00:53:00,
2013-10-09 16:58:00,48.6,30.2,29.89,SW,225,4.0,5.0,49,0.00,,,0.00,Weather View 32 v70,2013-10-10 00:58:00,
2013-10-09 17:03:00,48.4,30.1,29.89,NE,45,5.0,5.0,49,0.00,,,0.00,Weather View 32 v70,2013-10-10 01:03:00,
2013-10-09 17:08:00,48.0,29.7,29.89,SW,225,5.0,5.0,49,0.00,,,0.00,Weather View 32 v70,2013-10-10 01:08:00,
2013-10-09 17:13:00,47.8,30.1,29.89,SW,225,4.0,5.0,50,0.00,,,0.00,Weather View 32 v70,2013-10-10 01:13:00,
2013-10-09 17:18:00,47.8,30.1,29.89,South,180,4.0,5.0,50,0.00,,,0.00,Weather View 32 v70,2013-10-10 01:18:00,
2013-10-09 17:23:00,47.7,29.4,29.89,WSW,248,4.0,5.0,49,0.00,,,0.00,Weather View 32 v70,2013-10-10 01:23:00,
2013-10-09 17:28:00,47.7,29.9,29.89,WSW,248,4.0,5.0,50,0.00,,,0.00,Weather View 32 v70,2013-10-10 01:28:00,
2013-10-09 17:33:00,47.3,30.1,29.89,SSE,158,4.0,5.0,51,0.00,,,0.00,Weather View 32 v70,2013-10-10 01:33:00,
2013-10-09 17:38:00,47.1,29.9,29.89,South,180,3.0,5.0,51,0.00,,,0.00,Weather View 32 v70,2013-10-10 01:38:00,
2013-10-09 17:43:00,46.9,30.2,29.89,SSW,202,3.0,5.0,52,0.00,,,0.00,Weather View 32 v70,2013-10-10 01:43:00,
2013-10-09 17:48:00,46.6,30.3,29.88,South,180,3.0,5.0,53,0.00,,,0.00,Weather View 32 v70,2013-10-10 01:48:00,
2013-10-09 17:53:00,46.2,30.5,29.88,East,90,2.0,5.0,54,0.00,,,0.00,Weather View 32 v70,2013-10-10 01:53:00,
2013-10-09 17:58:00,46.0,30.3,29.88,SSE,158,2.0,5.0,54,0.00,,,0.00,Weather View 32 v70,2013-10-10 01:58:00,
2013-10-09 18:03:00,45.7,30.4,29.88,WSW,248,2.0,5.0,55,0.00,,,0.00,Weather View 32 v70,2013-10-10 02:03:00,
2013-10-09 18:08:00,45.5,30.2,29.89,SE,135,1.0,5.0,55,0.00,,,0.00,Weather View 32 v70,2013-10-10 02:08:00,
2013-10-09 18:13:00,45.1,29.9,29.89,WSW,248,1.0,5.0,55,0.00,,,0.00,Weather View 32 v70,2013-10-10 02:13:00,
2013-10-09 18:18:00,45.0,29.3,29.89,West,270,1.0,4.0,54,0.00,,,0.00,Weather View 32 v70,2013-10-10 02:18:00,
2013-10-09 18:23:00,44.4,28.8,29.89,SW,225,2.0,4.0,54,0.00,,,0.00,Weather View 32 v70,2013-10-10 02:23:00,
2013-10-09 18:28:00,44.4,28.3,29.89,SW,225,2.0,4.0,53,0.00,,,0.00,Weather View 32 v70,2013-10-10 02:28:00,
2013-10-09 18:33:00,44.1,28.0,29.89,SW,225,2.0,4.0,53,0.00,,,0.00,Weather View 32 v70,2013-10-10 02:33:00,
2013-10-09 18:38:00,43.7,28.6,29.89,South,180,2.0,3.0,55,0.00,,,0.00,Weather View 32 v70,2013-10-10 02:38:00,
2013-10-09 18:43:00,43.3,28.7,29.89,SE,135,2.0,3.0,56,0.00,,,0.00,Weather View 32 v70,2013-10-10 02:43:00,
2013-10-09 18:48:00,43.0,29.2,29.90,SE,135,2.0,3.0,58,0.00,,,0.00,Weather View 32 v70,2013-10-10 02:48:00,
2013-10-09 18:53:00,42.3,29.8,29.90,West,270,3.0,3.0,61,0.00,,,0.00,Weather View 32 v70,2013-10-10 02:53:00,
2013-10-09 18:58:00,42.6,30.5,29.90,South,180,2.0,3.0,62,0.00,,,0.00,Weather View 32 v70,2013-10-10 02:58:00,
2013-10-09 19:03:00,41.9,30.2,29.90,SW,225,2.0,3.0,63,0.00,,,0.00,Weather View 32 v70,2013-10-10 03:03:00,
2013-10-09 19:08:00,41.7,30.0,29.91,SW,225,2.0,3.0,63,0.00,,,0.00,Weather View 32 v70,2013-10-10 03:08:00,
2013-10-09 19:13:00,41.5,29.9,29.91,South,180,2.0,3.0,63,0.00,,,0.00,Weather View 32 v70,2013-10-10 03:13:00,
2013-10-09 19:18:00,41.2,29.9,29.91,SE,135,3.0,3.0,64,0.00,,,0.00,Weather View 32 v70,2013-10-10 03:18:00,
2013-10-09 19:23:00,40.8,29.6,29.91,South,180,2.0,3.0,64,0.00,,,0.00,Weather View 32 v70,2013-10-10 03:23:00,
2013-10-09 19:28:00,40.6,29.4,29.88,SSE,158,2.0,3.0,64,0.00,,,0.00,Weather View 32 v70,2013-10-10 03:28:00,
2013-10-09 19:33:00,40.5,29.2,29.88,SSE,158,2.0,3.0,64,0.00,,,0.00,Weather View 32 v70,2013-10-10 03:33:00,
2013-10-09 19:38:00,40.1,28.9,29.88,South,180,2.0,3.0,64,0.00,,,0.00,Weather View 32 v70,2013-10-10 03:38:00,
2013-10-09 19:43:00,39.7,28.9,29.88,South,180,2.0,3.0,65,0.00,,,0.00,Weather View 32 v70,2013-10-10 03:43:00,
2013-10-09 19:48:00,39.0,28.6,29.87,SE,135,2.0,3.0,66,0.00,,,0.00,Weather View 32 v70,2013-10-10 03:48:00,
2013-10-09 19:53:00,38.5,28.5,29.87,SE,135,2.0,3.0,67,0.00,,,0.00,Weather View 32 v70,2013-10-10 03:53:00,
2013-10-09 19:58:00,37.8,28.1,29.87,SSE,158,2.0,3.0,68,0.00,,,0.00,Weather View 32 v70,2013-10-10 03:58:00,
2013-10-09 20:01:00,37.8,28.1,29.87,South,180,2.0,3.0,68,0.00,,,0.00,Weather View 32 v70,2013-10-10 04:01:00,
2013-10-09 20:06:00,37.6,28.3,29.88,SSW,202,2.0,3.0,69,0.00,,,0.00,Weather View 32 v70,2013-10-10 04:06:00,
2013-10-09 20:11:00,36.7,27.8,29.88,South,180,1.0,3.0,70,0.00,,,0.00,Weather View 32 v70,2013-10-10 04:11:00,
2013-10-09 20:16:00,36.5,27.6,29.88,SW,225,1.0,3.0,70,0.00,,,0.00,Weather View 32 v70,2013-10-10 04:16:00,
2013-10-09 20:21:00,36.0,27.5,29.88,ESE,112,1.0,3.0,71,0.00,,,0.00,Weather View 32 v70,2013-10-10 04:21:00,
2013-10-09 20:26:00,35.6,27.5,29.86,SE,135,1.0,2.0,72,0.00,,,0.00,Weather View 32 v70,2013-10-10 04:26:00,
2013-10-09 20:35:00,34.9,27.1,29.86,SSE,158,1.0,2.0,73,0.00,,,0.00,Weather View 32 v70,2013-10-10 04:35:00,
2013-10-09 20:40:00,34.9,27.1,29.86,SSE,158,1.0,2.0,73,0.00,,,0.00,Weather View 32 v70,2013-10-10 04:40:00,
2013-10-09 20:45:00,34.9,27.1,29.88,SE,135,2.0,2.0,73,0.00,,,0.00,Weather View 32 v70,2013-10-10 04:45:00,
2013-10-09 20:50:00,34.9,27.1,29.88,SSE,158,2.0,2.0,73,0.00,,,0.00,Weather View 32 v70,2013-10-10 04:50:00,
2013-10-09 20:55:00,34.7,27.3,29.88,SE,135,2.0,2.0,74,0.00,,,0.00,Weather View 32 v70,2013-10-10 04:55:00,
2013-10-09 21:00:00,34.2,26.7,29.88,SSE,158,1.0,2.0,74,0.00,,,0.00,Weather View 32 v70,2013-10-10 05:00:00,
2013-10-09 21:05:00,34.2,27.1,29.88,SSE,158,2.0,2.0,75,0.00,,,0.00,Weather View 32 v70,2013-10-10 05:05:00,
2013-10-09 21:10:00,34.2,27.1,29.88,East,90,2.0,2.0,75,0.00,,,0.00,Weather View 32 v70,2013-10-10 05:10:00,
2013-10-09 21:15:00,34.3,27.2,29.88,SE,135,1.0,2.0,75,0.00,,,0.00,Weather View 32 v70,2013-10-10 05:15:00,
2013-10-09 21:20:00,34.0,27.2,29.88,SE,135,1.0,2.0,76,0.00,,,0.00,Weather View 32 v70,2013-10-10 05:20:00,
2013-10-09 21:25:00,33.6,27.2,29.88,WSW,248,1.0,2.0,77,0.00,,,0.00,Weather View 32 v70,2013-10-10 05:25:00,
2013-10-09 21:35:00,33.4,27.3,29.88,SSE,158,1.0,2.0,78,0.00,,,0.00,Weather View 32 v70,2013-10-10 05:35:00,
2013-10-09 21:40:00,33.6,27.5,29.88,SW,225,1.0,2.0,78,0.00,,,0.00,Weather View 32 v70,2013-10-10 05:40:00,
2013-10-09 21:45:00,33.6,27.8,29.88,SSE,158,1.0,2.0,79,0.00,,,0.00,Weather View 32 v70,2013-10-10 05:45:00,
2013-10-09 21:50:00,33.8,28.0,29.88,NW,315,1.0,2.0,79,0.00,,,0.00,Weather View 32 v70,2013-10-10 05:50:00,
2013-10-09 22:00:00,33.4,27.6,29.88,SW,225,0.0,2.0,79,0.00,,,0.00,Weather View 32 v70,2013-10-10 06:00:00,
2013-10-09 22:05:00,33.3,27.5,29.88,SW,225,0.0,2.0,79,0.00,,,0.00,Weather View 32 v70,2013-10-10 06:05:00,
2013-10-09 22:10:00,32.9,27.1,29.88,SSE,158,0.0,2.0,79,0.00,,,0.00,Weather View 32 v70,2013-10-10 06:10:00,
2013-10-09 22:15:00,32.5,27.1,29.88,South,180,0.0,1.0,80,0.00,,,0.00,Weather View 32 v70,2013-10-10 06:15:00,
2013-10-09 22:20:00,32.5,27.1,29.88,West,270,0.0,1.0,80,0.00,,,0.00,Weather View 32 v70,2013-10-10 06:20:00,
2013-10-09 22:25:00,32.2,27.0,29.88,SSE,158,0.0,1.0,81,0.00,,,0.00,Weather View 32 v70,2013-10-10 06:25:00,
2013-10-09 22:30:00,32.2,27.0,29.88,SE,135,0.0,1.0,81,0.00,,,0.00,Weather View 32 v70,2013-10-10 06:30:00,
2013-10-09 22:35:00,31.8,27.0,29.88,SE,135,1.0,1.0,82,0.00,,,0.00,Weather View 32 v70,2013-10-10 06:35:00,
2013-10-09 22:40:00,31.8,27.0,29.88,SSE,158,1.0,1.0,82,0.00,,,0.00,Weather View 32 v70,2013-10-10 06:40:00,
2013-10-09 22:45:00,31.6,26.8,29.88,NE,45,1.0,2.0,82,0.00,,,0.00,Weather View 32 v70,2013-10-10 06:45:00,
2013-10-09 22:50:00,31.6,26.8,29.88,South,180,1.0,2.0,82,0.00,,,0.00,Weather View 32 v70,2013-10-10 06:50:00,
2013-10-09 22:55:00,31.5,26.9,29.88,South,180,0.0,2.0,83,0.00,,,0.00,Weather View 32 v70,2013-10-10 06:55:00,
2013-10-09 23:00:00,31.3,26.7,29.88,NNE,22,0.0,2.0,83,0.00,,,0.00,Weather View 32 v70,2013-10-10 07:00:00,
2013-10-09 23:05:00,31.3,27.0,29.89,West,270,0.0,2.0,84,0.00,,,0.00,Weather View 32 v70,2013-10-10 07:05:00,
2013-10-09 23:10:00,31.5,27.5,29.89,SSE,158,0.0,2.0,85,0.00,,,0.00,Weather View 32 v70,2013-10-10 07:10:00,
2013-10-09 23:15:00,31.3,27.0,29.89,ENE,68,0.0,2.0,84,0.00,,,0.00,Weather View 32 v70,2013-10-10 07:15:00,
2013-10-09 23:20:00,31.1,26.8,29.89,WNW,292,0.0,2.0,84,0.00,,,0.00,Weather View 32 v70,2013-10-10 07:20:00,
2013-10-09 23:25:00,31.1,26.8,29.89,WSW,248,0.0,2.0,84,0.00,,,0.00,Weather View 32 v70,2013-10-10 07:25:00,
2013-10-09 23:30:00,31.1,26.8,29.89,South,180,0.0,2.0,84,0.00,,,0.00,Weather View 32 v70,2013-10-10 07:30:00,
2013-10-09 23:35:00,31.1,27.1,29.89,SSE,158,0.0,2.0,85,0.00,,,0.00,Weather View 32 v70,2013-10-10 07:35:00,
2013-10-09 23:40:00,31.1,27.1,29.89,SSE,158,0.0,2.0,85,0.00,,,0.00,Weather View 32 v70,2013-10-10 07:40:00,
2013-10-09 23:45:00,31.1,27.1,29.89,NW,315,0.0,2.0,85,0.00,,,0.00,Weather View 32 v70,2013-10-10 07:45:00,
2013-10-09 23:50:00,31.1,27.1,29.89,SSE,158,0.0,1.0,85,0.00,,,0.00,Weather View 32 v70,2013-10-10 07:50:00,
2013-10-09 23:55:00,31.1,27.1,29.89,SSW,202,0.0,0.0,85,0.00,,,0.00,Weather View 32 v70,2013-10-10 07:55:00,